createdAt,value
2018-05-15T00:00:57.780Z,8.63
2018-05-15T00:03:25.445Z,6.93
2018-05-15T00:05:53.105Z,6.97
2018-05-15T00:08:20.963Z,7.07
2018-05-15T00:10:48.638Z,7.90
2018-05-15T00:13:16.305Z,9.20
2018-05-15T00:15:43.957Z,9.40
2018-05-15T00:18:11.619Z,13.30
2018-05-15T00:20:39.281Z,10.83
2018-05-15T00:23:06.953Z,9.97
2018-05-15T00:25:34.612Z,12.77
2018-05-15T00:28:02.299Z,10.63
2018-05-15T00:30:31.230Z,11.37
2018-05-15T00:32:58.889Z,12.37
2018-05-15T00:35:26.549Z,12.00
2018-05-15T00:37:54.212Z,12.07
2018-05-15T00:40:22.009Z,8.60
2018-05-15T00:42:49.673Z,10.23
2018-05-15T00:45:17.337Z,10.47
2018-05-15T00:47:45.004Z,11.03
2018-05-15T00:50:12.661Z,11.30
2018-05-15T00:52:40.320Z,10.90
2018-05-15T00:55:19.965Z,11.53
2018-05-15T00:57:47.633Z,11.63
2018-05-15T01:00:15.293Z,11.77
2018-05-15T01:02:42.971Z,11.33
2018-05-15T01:05:10.646Z,10.67
2018-05-15T01:07:39.084Z,11.10
2018-05-15T01:10:06.761Z,11.67
2018-05-15T01:12:34.436Z,11.53
2018-05-15T01:15:02.104Z,10.43
2018-05-15T01:17:29.764Z,10.77
2018-05-15T01:19:57.430Z,11.87
2018-05-15T01:22:25.089Z,12.70
2018-05-15T01:24:52.836Z,12.13
2018-05-15T01:27:20.497Z,12.77
2018-05-15T01:29:48.153Z,11.00
2018-05-15T01:32:15.817Z,14.50
2018-05-15T01:34:43.509Z,13.80
2018-05-15T01:37:11.956Z,15.10
2018-05-15T01:39:39.623Z,13.27
2018-05-15T01:42:07.284Z,12.97
2018-05-15T01:44:34.969Z,12.50
2018-05-15T01:47:02.634Z,12.57
2018-05-15T01:49:30.293Z,13.70
2018-05-15T01:51:57.953Z,11.93
2018-05-15T01:54:25.638Z,11.13
2018-05-15T01:56:54.076Z,11.17
2018-05-15T01:59:21.841Z,10.67
2018-05-15T02:01:49.508Z,11.03
2018-05-15T02:04:17.165Z,12.10
2018-05-15T02:06:44.844Z,10.40
2018-05-15T02:09:12.513Z,10.97
2018-05-15T02:11:40.173Z,12.03
2018-05-15T02:14:07.832Z,11.77
2018-05-15T02:16:35.529Z,11.53
2018-05-15T02:19:03.200Z,12.57
2018-05-15T02:21:30.900Z,10.80
2018-05-15T02:23:58.566Z,11.63
2018-05-15T02:26:26.230Z,11.30
2018-05-15T02:28:53.892Z,11.47
2018-05-15T02:31:21.549Z,11.47
2018-05-15T02:33:49.213Z,10.63
2018-05-15T02:36:16.877Z,10.73
2018-05-15T02:38:44.557Z,11.57
2018-05-15T02:41:12.221Z,11.57
2018-05-15T02:43:39.885Z,11.50
2018-05-15T02:46:07.549Z,11.53
2018-05-15T02:48:35.249Z,12.07
2018-05-15T02:51:02.949Z,12.83
2018-05-15T02:53:30.609Z,12.60
2018-05-15T02:55:58.273Z,12.47
2018-05-15T02:58:25.933Z,11.60
2018-05-15T03:00:54.627Z,10.87
2018-05-15T03:03:22.309Z,10.57
2018-05-15T03:05:50.752Z,12.87
2018-05-15T03:08:18.429Z,11.23
2018-05-15T03:10:46.094Z,10.30
2018-05-15T03:13:13.779Z,15.93
2018-05-15T03:15:42.229Z,14.23
2018-05-15T03:18:09.893Z,10.30
2018-05-15T03:20:38.677Z,8.93
2018-05-15T03:23:06.331Z,8.60
2018-05-15T03:25:33.999Z,8.80
2018-05-15T03:28:01.665Z,9.73
2018-05-15T03:30:29.328Z,8.53
2018-05-15T03:32:56.989Z,8.63
2018-05-15T03:35:24.649Z,9.47
2018-05-15T03:37:52.313Z,10.50
2018-05-15T03:40:19.975Z,9.77
2018-05-15T03:42:48.013Z,10.20
2018-05-15T03:45:15.674Z,10.07
2018-05-15T03:47:43.331Z,9.10
2018-05-15T03:50:11.030Z,7.97
2018-05-15T03:52:38.693Z,9.17
2018-05-15T03:55:06.362Z,7.40
2018-05-15T03:57:34.060Z,7.87
2018-05-15T04:00:02.501Z,7.50
2018-05-15T04:02:41.977Z,6.80
2018-05-15T04:05:21.469Z,7.07
2018-05-15T04:08:00.951Z,6.53
2018-05-15T04:10:29.396Z,6.80
2018-05-15T04:12:57.229Z,6.17
2018-05-15T04:15:24.892Z,6.70
2018-05-15T04:17:52.565Z,7.13
2018-05-15T04:20:20.262Z,6.20
2018-05-15T04:22:47.913Z,6.27
2018-05-15T04:25:15.593Z,6.13
2018-05-15T04:27:43.462Z,5.83
2018-05-15T04:30:11.929Z,6.07
2018-05-15T04:32:39.652Z,7.20
2018-05-15T04:35:07.417Z,6.43
2018-05-15T04:37:35.013Z,5.27
2018-05-15T04:40:02.677Z,5.60
2018-05-15T04:42:30.344Z,5.83
2018-05-15T04:44:58.168Z,5.27
2018-05-15T04:47:25.837Z,6.00
2018-05-15T04:49:53.548Z,5.80
2018-05-15T04:52:21.220Z,5.03
2018-05-15T04:54:49.669Z,5.87
2018-05-15T04:57:17.332Z,4.80
2018-05-15T04:59:44.992Z,4.67
2018-05-15T05:02:12.729Z,4.67
2018-05-15T05:04:40.420Z,5.07
2018-05-15T05:07:08.113Z,7.73
2018-05-15T05:09:35.923Z,6.07
2018-05-15T05:12:03.808Z,6.77
2018-05-15T05:14:31.512Z,7.23
2018-05-15T05:16:59.472Z,8.70
2018-05-15T05:19:27.206Z,6.07
2018-05-15T05:21:54.912Z,5.00
2018-05-15T05:24:23.420Z,4.70
2018-05-15T05:26:51.207Z,4.60
2018-05-15T05:29:19.000Z,4.87
2018-05-15T05:31:46.689Z,4.60
2018-05-15T05:34:14.387Z,4.10
2018-05-15T05:36:42.083Z,4.70
2018-05-15T05:39:09.736Z,5.03
2018-05-15T05:41:37.489Z,6.17
2018-05-15T05:44:05.165Z,6.30
2018-05-15T05:46:32.876Z,5.63
2018-05-15T05:49:00.623Z,5.17
2018-05-15T05:51:29.155Z,4.83
2018-05-15T05:53:56.865Z,5.30
2018-05-15T05:56:25.317Z,5.70
2018-05-15T05:58:53.044Z,4.93
2018-05-15T06:01:20.829Z,5.20
2018-05-15T06:03:48.550Z,5.43
2018-05-15T06:06:17.131Z,4.80
2018-05-15T06:08:45.571Z,4.87
2018-05-15T06:11:13.304Z,4.63
2018-05-15T06:13:41.000Z,4.90
2018-05-15T06:16:08.725Z,4.47
2018-05-15T06:18:36.809Z,4.10
2018-05-15T06:21:04.608Z,4.57
2018-05-15T06:23:32.280Z,4.17
2018-05-15T06:25:59.976Z,5.10
2018-05-15T06:28:27.706Z,4.17
2018-05-15T06:30:55.528Z,3.80
2018-05-15T06:33:23.233Z,3.17
2018-05-15T06:35:50.943Z,3.00
2018-05-15T06:38:18.645Z,2.53
2018-05-15T06:40:46.324Z,2.00
2018-05-15T06:43:14.017Z,3.20
2018-05-15T06:45:41.724Z,2.40
2018-05-15T06:48:09.414Z,2.30
2018-05-15T06:50:41.142Z,1.90
2018-05-15T06:53:08.880Z,1.50
2018-05-15T06:55:36.612Z,1.67
2018-05-15T06:58:05.063Z,1.50
2018-05-15T07:00:32.773Z,2.00
2018-05-15T07:03:00.528Z,2.37
2018-05-15T07:05:28.242Z,3.13
2018-05-15T07:07:55.969Z,3.47
2018-05-15T07:10:23.692Z,4.30
2018-05-15T07:12:51.384Z,4.10
2018-05-15T07:15:19.089Z,2.60
2018-05-15T07:17:46.804Z,2.30
2018-05-15T07:20:15.249Z,2.10
2018-05-15T07:22:43.182Z,1.50
2018-05-15T07:25:11.398Z,1.43
2018-05-15T07:27:39.531Z,1.80
2018-05-15T07:30:07.644Z,1.97
2018-05-15T07:32:35.488Z,1.70
2018-05-15T07:35:03.305Z,1.60
2018-05-15T07:37:31.003Z,1.27
2018-05-15T07:40:00.590Z,1.50
2018-05-15T07:42:28.364Z,1.30
2018-05-15T07:44:56.409Z,1.37
2018-05-15T07:47:24.879Z,1.40
2018-05-15T07:49:52.636Z,1.47
2018-05-15T07:52:20.306Z,1.47
2018-05-15T07:54:48.794Z,1.60
2018-05-15T07:57:17.846Z,1.20
2018-05-15T07:59:46.567Z,1.37
2018-05-15T08:02:14.273Z,1.27
2018-05-15T08:04:41.969Z,1.23
2018-05-15T08:07:10.414Z,1.23
2018-05-15T08:09:38.188Z,1.10
2018-05-15T08:12:05.964Z,1.10
2018-05-15T08:14:33.718Z,1.40
2018-05-15T08:17:01.441Z,1.30
2018-05-15T08:19:29.916Z,1.70
2018-05-15T08:21:58.404Z,1.50
2018-05-15T08:24:26.899Z,1.77
2018-05-15T08:26:54.614Z,1.40
2018-05-15T08:29:22.693Z,1.60
2018-05-15T08:31:50.371Z,0.93
2018-05-15T08:34:18.858Z,0.70
2018-05-15T08:36:47.361Z,0.93
2018-05-15T08:39:15.171Z,1.20
2018-05-15T08:41:42.868Z,1.07
2018-05-15T08:44:11.311Z,1.10
2018-05-15T08:46:39.046Z,1.40
2018-05-15T08:49:06.770Z,1.13
2018-05-15T08:51:34.481Z,1.33
2018-05-15T08:54:02.204Z,1.00
2018-05-15T08:56:30.665Z,1.20
2018-05-15T08:58:58.392Z,1.10
2018-05-15T09:01:26.493Z,1.60
2018-05-15T09:03:54.392Z,1.10
2018-05-15T09:06:22.869Z,1.43
2018-05-15T09:08:51.395Z,2.00
2018-05-15T09:11:19.272Z,1.73
2018-05-15T09:13:46.977Z,1.50
2018-05-15T09:16:15.478Z,1.60
2018-05-15T09:18:44.189Z,2.37
2018-05-15T09:21:11.980Z,1.83
2018-05-15T09:23:39.717Z,1.30
2018-05-15T09:26:07.425Z,1.43
2018-05-15T09:28:35.130Z,1.40
2018-05-15T09:31:02.944Z,1.23
2018-05-15T09:33:30.621Z,1.73
2018-05-15T09:35:58.354Z,1.20
2018-05-15T09:38:26.124Z,1.40
2018-05-15T09:40:53.821Z,1.30
2018-05-15T09:43:44.125Z,1.30
2018-05-15T09:46:11.813Z,1.60
2018-05-15T09:48:39.486Z,1.40
2018-05-15T09:51:07.274Z,1.10
2018-05-15T09:53:34.958Z,1.47
2018-05-15T09:56:02.630Z,1.40
2018-05-15T09:58:30.690Z,1.40
2018-05-15T10:00:58.471Z,1.93
2018-05-15T10:03:27.009Z,2.43
2018-05-15T10:05:54.729Z,2.13
2018-05-15T10:08:22.436Z,2.00
2018-05-15T10:10:50.211Z,1.97
2018-05-15T10:13:17.941Z,1.93
2018-05-15T10:15:45.658Z,2.10
2018-05-15T10:18:13.385Z,1.80
2018-05-15T10:20:41.092Z,1.90
2018-05-15T10:23:09.577Z,1.90
2018-05-15T10:25:38.093Z,2.00
2018-05-15T10:28:05.812Z,2.30
2018-05-15T10:30:33.645Z,1.60
2018-05-15T10:33:01.319Z,2.13
2018-05-15T10:35:29.010Z,2.13
2018-05-15T10:37:57.497Z,2.30
2018-05-15T10:40:25.957Z,2.10
2018-05-15T10:42:53.669Z,2.13
2018-05-15T10:45:21.399Z,2.63
2018-05-15T10:47:49.977Z,2.50
2018-05-15T10:50:18.487Z,2.17
2018-05-15T10:52:46.197Z,2.20
2018-05-15T10:55:14.666Z,2.13
2018-05-15T10:57:42.356Z,2.33
2018-05-15T11:00:11.591Z,2.90
2018-05-15T11:02:39.546Z,2.07
2018-05-15T11:05:08.106Z,1.97
2018-05-15T11:07:35.841Z,1.87
2018-05-15T11:10:03.918Z,2.00
2018-05-15T11:12:31.617Z,1.80
2018-05-15T11:15:00.101Z,2.17
2018-05-15T11:17:28.585Z,2.00
2018-05-15T11:20:09.388Z,2.50
2018-05-15T11:22:49.162Z,2.10
2018-05-15T11:25:16.845Z,2.10
2018-05-15T11:27:44.525Z,2.27
2018-05-15T11:30:13.064Z,2.10
2018-05-15T11:32:40.738Z,2.23
2018-05-15T11:35:08.469Z,2.20
2018-05-15T11:37:36.161Z,3.00
2018-05-15T11:40:03.982Z,3.63
2018-05-15T11:42:31.739Z,3.50
2018-05-15T11:45:00.200Z,2.90
2018-05-15T11:47:28.807Z,2.97
2018-05-15T11:49:57.165Z,3.80
2018-05-15T11:52:24.732Z,4.23
2018-05-15T11:54:51.967Z,3.13
2018-05-15T11:57:19.688Z,3.87
2018-05-15T11:59:47.468Z,4.00
2018-05-15T12:02:15.169Z,3.80
2018-05-15T12:04:43.663Z,2.67
2018-05-15T12:07:12.129Z,2.33
2018-05-15T12:09:39.917Z,2.90
2018-05-15T12:12:08.028Z,3.17
2018-05-15T12:14:35.727Z,3.50
2018-05-15T12:17:03.437Z,3.00
2018-05-15T12:19:31.124Z,2.80
2018-05-15T12:21:58.818Z,2.30
2018-05-15T12:24:26.662Z,2.13
2018-05-15T12:26:54.317Z,2.30
2018-05-15T12:29:22.151Z,2.37
2018-05-15T12:31:49.874Z,2.17
2018-05-15T12:34:17.545Z,2.20
2018-05-15T12:36:46.013Z,2.33
2018-05-15T12:39:13.709Z,2.40
2018-05-15T12:41:41.543Z,3.00
2018-05-15T12:44:09.455Z,3.20
2018-05-15T12:46:37.129Z,3.70
2018-05-15T12:49:04.812Z,3.67
2018-05-15T12:51:32.597Z,3.50
2018-05-15T12:54:00.388Z,4.30
2018-05-15T12:56:28.125Z,4.00
2018-05-15T12:58:55.862Z,3.33
2018-05-15T13:01:23.565Z,2.80
2018-05-15T13:03:51.334Z,3.87
2018-05-15T13:06:19.055Z,3.60
2018-05-15T13:08:46.779Z,3.10
2018-05-15T13:11:14.581Z,3.63
2018-05-15T13:13:42.273Z,3.37
2018-05-15T13:16:10.038Z,3.40
2018-05-15T13:18:37.908Z,3.40
2018-05-15T13:21:05.601Z,3.60
2018-05-15T13:23:33.327Z,3.03
2018-05-15T13:26:01.005Z,3.60
2018-05-15T13:28:29.491Z,3.30
2018-05-15T13:30:57.977Z,3.70
2018-05-15T13:33:25.696Z,2.60
2018-05-15T13:35:53.416Z,3.20
2018-05-15T13:38:21.117Z,3.17
2018-05-15T13:40:48.881Z,3.90
2018-05-15T13:43:16.593Z,4.13
2018-05-15T13:45:44.322Z,4.20
2018-05-15T13:48:12.058Z,5.03
2018-05-15T13:50:39.783Z,4.10
2018-05-15T13:53:08.249Z,4.73
2018-05-15T13:55:35.953Z,3.50
2018-05-15T13:58:03.652Z,3.30
2018-05-15T14:00:31.341Z,4.07
2018-05-15T14:02:59.816Z,3.53
2018-05-15T14:05:27.549Z,3.47
2018-05-15T14:07:55.275Z,3.67
2018-05-15T14:10:23.105Z,3.53
2018-05-15T14:12:50.844Z,3.67
2018-05-15T14:15:18.619Z,4.20
2018-05-15T14:17:46.349Z,3.17
2018-05-15T14:20:14.118Z,4.90
2018-05-15T14:22:41.915Z,5.17
2018-05-15T14:25:09.604Z,4.60
2018-05-15T14:27:38.191Z,4.47
2018-05-15T14:30:05.989Z,4.23
2018-05-15T14:32:33.792Z,4.93
2018-05-15T14:35:01.524Z,5.53
2018-05-15T14:37:29.255Z,5.70
2018-05-15T14:39:57.828Z,6.77
2018-05-15T14:42:47.925Z,6.70
2018-05-15T14:45:16.492Z,7.13
2018-05-15T14:47:44.233Z,7.00
2018-05-15T14:50:11.942Z,6.83
2018-05-15T14:52:40.047Z,6.47
2018-05-15T14:55:07.785Z,6.10
2018-05-15T14:57:35.520Z,4.90
2018-05-15T15:00:03.304Z,5.37
2018-05-15T15:02:31.043Z,6.07
2018-05-15T15:04:58.760Z,5.43
2018-05-15T15:07:26.517Z,4.97
2018-05-15T15:09:54.258Z,4.83
2018-05-15T15:12:22.733Z,4.73
2018-05-15T15:14:51.249Z,4.57
2018-05-15T15:17:19.104Z,5.27
2018-05-15T15:19:46.797Z,5.20
2018-05-15T15:22:14.526Z,5.07
2018-05-15T15:24:42.251Z,4.80
2018-05-15T15:27:10.034Z,5.27
2018-05-15T15:29:38.521Z,5.83
2018-05-15T15:32:06.977Z,5.30
2018-05-15T15:34:34.712Z,5.37
2018-05-15T15:37:02.397Z,6.57
2018-05-15T15:39:30.105Z,5.73
2018-05-15T15:41:57.845Z,8.20
2018-05-15T15:44:26.322Z,8.00
2018-05-15T15:46:54.060Z,7.97
2018-05-15T15:49:21.789Z,9.00
2018-05-15T15:51:49.510Z,10.87
2018-05-15T15:54:17.549Z,9.20
2018-05-15T15:56:45.261Z,9.77
2018-05-15T15:59:13.766Z,8.93
2018-05-15T16:01:41.552Z,9.10
2018-05-15T16:04:09.582Z,7.60
2018-05-15T16:06:37.368Z,7.33
2018-05-15T16:09:05.337Z,7.53
2018-05-15T16:11:33.061Z,8.50
2018-05-15T16:14:01.556Z,7.70
2018-05-15T16:16:30.013Z,8.90
2018-05-15T16:18:57.748Z,8.50
2018-05-15T16:21:26.308Z,10.37
2018-05-15T16:23:54.048Z,11.73
2018-05-15T16:26:23.020Z,15.00
2018-05-15T16:28:50.857Z,14.47
2018-05-15T16:31:18.578Z,13.57
2018-05-15T16:33:46.257Z,13.33
2018-05-15T16:36:13.941Z,16.63
2018-05-15T16:38:41.653Z,15.17
2018-05-15T16:41:10.317Z,16.07
2018-05-15T16:43:38.872Z,16.77
2018-05-15T16:46:06.703Z,18.13
2018-05-15T16:48:34.409Z,18.50
2018-05-15T16:51:02.107Z,17.50
2018-05-15T16:53:30.589Z,19.40
2018-05-15T16:55:59.105Z,18.17
2018-05-15T16:58:27.200Z,16.37
2018-05-15T17:00:55.973Z,15.43
2018-05-15T17:03:23.667Z,14.63
2018-05-15T17:05:51.391Z,13.63
2018-05-15T17:08:19.153Z,14.17
2018-05-15T17:10:46.897Z,12.90
2018-05-15T17:13:15.535Z,13.10
2018-05-15T17:15:43.988Z,15.90
2018-05-15T17:18:11.713Z,16.00
2018-05-15T17:20:40.218Z,15.23
2018-05-15T17:23:07.947Z,13.20
2018-05-15T17:25:35.645Z,16.00
2018-05-15T17:28:03.385Z,16.03
2018-05-15T17:30:31.219Z,19.60
2018-05-15T17:32:58.968Z,18.73
2018-05-15T17:35:26.697Z,17.80
2018-05-15T17:37:55.229Z,9.20
2018-05-15T17:40:22.966Z,9.00
2018-05-15T17:42:50.677Z,14.13
2018-05-15T17:45:18.447Z,15.37
2018-05-15T17:47:46.153Z,14.30
2018-05-15T17:50:14.989Z,13.03
2018-05-15T17:52:43.255Z,16.13
2018-05-15T17:55:10.905Z,15.77
2018-05-15T17:57:38.647Z,20.87
2018-05-15T18:00:06.441Z,22.70
2018-05-15T18:02:34.483Z,29.07
2018-05-15T18:05:02.220Z,24.73
2018-05-15T18:07:30.700Z,23.93
2018-05-15T18:09:58.451Z,26.63
2018-05-15T18:12:26.929Z,23.73
2018-05-15T18:14:54.793Z,25.67
2018-05-15T18:17:22.853Z,24.00
2018-05-15T18:19:50.703Z,26.13
2018-05-15T18:22:18.405Z,23.63
2018-05-15T18:24:46.161Z,24.33
2018-05-15T18:27:13.853Z,27.37
2018-05-15T18:29:41.698Z,23.87
2018-05-15T18:32:10.165Z,25.23
2018-05-15T18:34:37.899Z,25.97
2018-05-15T18:37:05.647Z,24.90
2018-05-15T18:39:33.401Z,24.00
2018-05-15T18:42:01.129Z,25.17
2018-05-15T18:44:29.591Z,23.10
2018-05-15T18:46:57.319Z,21.10
2018-05-15T18:49:25.540Z,22.70
2018-05-15T18:51:53.301Z,21.80
2018-05-15T18:54:21.008Z,21.10
2018-05-15T18:56:48.709Z,19.53
2018-05-15T18:59:16.421Z,22.60
2018-05-15T19:01:44.912Z,22.30
2018-05-15T19:04:12.666Z,21.00
2018-05-15T19:06:40.446Z,23.30
2018-05-15T19:09:08.196Z,30.00
2018-05-15T19:11:35.949Z,31.50
2018-05-15T19:14:03.714Z,34.57
2018-05-15T19:16:32.200Z,30.43
2018-05-15T19:18:59.900Z,33.13
2018-05-15T19:21:27.754Z,34.37
2018-05-15T19:23:55.456Z,30.53
2018-05-15T19:26:23.182Z,29.10
2018-05-15T19:28:50.934Z,33.67
2018-05-15T19:31:18.903Z,29.53
2018-05-15T19:33:52.552Z,32.67
2018-05-15T19:36:20.333Z,32.80
2018-05-15T19:38:48.573Z,35.20
2018-05-15T19:41:20.180Z,33.30
2018-05-15T19:43:48.665Z,33.73
2018-05-15T19:46:16.428Z,29.87
2018-05-15T19:48:44.147Z,33.53
2018-05-15T19:51:12.448Z,31.30
2018-05-15T19:53:40.177Z,31.53
2018-05-15T19:56:07.937Z,31.27
2018-05-15T19:58:35.893Z,29.00
2018-05-15T20:01:03.692Z,34.30
2018-05-15T20:03:31.389Z,32.27
2018-05-15T20:05:59.864Z,41.10
2018-05-15T20:08:28.528Z,38.17
2018-05-15T20:10:56.277Z,36.20
2018-05-15T20:13:23.967Z,34.53
2018-05-15T20:15:51.686Z,45.10
2018-05-15T20:18:19.397Z,36.57
2018-05-15T20:20:47.167Z,34.03
2018-05-15T20:23:15.658Z,39.50
2018-05-15T20:25:43.384Z,38.13
2018-05-15T20:28:11.069Z,32.73
2018-05-15T20:30:38.749Z,42.10
2018-05-15T20:33:07.198Z,36.63
2018-05-15T20:35:34.882Z,32.73
2018-05-15T20:38:03.364Z,41.90
2018-05-15T20:40:31.848Z,36.23
2018-05-15T20:43:00.669Z,31.93
2018-05-15T20:45:28.374Z,32.80
2018-05-15T20:47:56.072Z,33.67
2018-05-15T20:50:26.651Z,31.70
2018-05-15T20:52:54.354Z,35.73
2018-05-15T20:55:22.813Z,35.57
2018-05-15T20:57:50.533Z,38.83
2018-05-15T21:00:18.272Z,30.93
2018-05-15T21:02:46.742Z,32.70
2018-05-15T21:05:15.217Z,31.80
2018-05-15T21:07:42.902Z,29.17
2018-05-15T21:10:11.366Z,32.73
2018-05-15T21:12:39.101Z,31.83
2018-05-15T21:15:07.188Z,34.13
2018-05-15T21:17:34.905Z,30.97
2018-05-15T21:20:02.629Z,31.43
2018-05-15T21:22:31.113Z,27.70
2018-05-15T21:24:59.597Z,32.80
2018-05-15T21:27:28.050Z,32.20
2018-05-15T21:29:55.831Z,25.30
2018-05-15T21:32:23.512Z,24.77
2018-05-15T21:34:51.968Z,23.63
2018-05-15T21:37:19.666Z,27.70
2018-05-15T21:39:47.407Z,22.43
2018-05-15T21:42:15.876Z,23.50
2018-05-15T21:44:43.565Z,22.77
2018-05-15T21:47:11.309Z,23.63
2018-05-15T21:49:39.795Z,23.97
2018-05-15T21:52:08.266Z,23.37
2018-05-15T21:54:35.961Z,24.33
2018-05-15T21:57:03.674Z,30.07
2018-05-15T21:59:31.402Z,28.77
2018-05-15T22:01:59.090Z,28.43
2018-05-15T22:04:26.794Z,29.73
2018-05-15T22:06:55.260Z,33.37
2018-05-15T22:09:22.980Z,27.47
2018-05-15T22:12:02.450Z,24.43
2018-05-15T22:14:42.017Z,26.43
2018-05-15T22:17:22.683Z,31.27
2018-05-15T22:20:03.014Z,24.20
2018-05-15T22:22:30.182Z,24.80
2018-05-15T22:24:57.901Z,24.07
2018-05-15T22:27:25.610Z,26.07
2018-05-15T22:29:54.101Z,23.03
2018-05-15T22:32:22.605Z,29.47
2018-05-15T22:34:50.317Z,30.27
2018-05-15T22:37:18.045Z,34.23
2018-05-15T22:39:45.781Z,35.67
2018-05-15T22:42:14.256Z,34.47
2018-05-15T22:44:42.732Z,28.43
2018-05-15T22:47:11.212Z,28.90
2018-05-15T22:49:39.221Z,29.83
2018-05-15T22:52:06.909Z,30.43
2018-05-15T22:54:34.597Z,31.00
2018-05-15T22:57:02.296Z,33.10
2018-05-15T22:59:30.045Z,35.37
2018-05-15T23:01:58.513Z,34.30
2018-05-15T23:04:26.253Z,34.40
2018-05-15T23:06:53.953Z,33.97
2018-05-15T23:09:22.428Z,36.27
2018-05-15T23:11:50.914Z,37.63
2018-05-15T23:14:18.640Z,33.73
2018-05-15T23:16:46.374Z,34.73
2018-05-15T23:19:14.073Z,33.67
2018-05-15T23:21:42.013Z,37.40
2018-05-15T23:24:09.728Z,34.67
2018-05-15T23:26:39.977Z,28.10
2018-05-15T23:29:07.689Z,22.43
2018-05-15T23:31:35.372Z,32.60
2018-05-15T23:34:03.065Z,32.87
2018-05-15T23:36:30.813Z,33.03
2018-05-15T23:38:59.260Z,35.93
2018-05-15T23:41:26.949Z,31.83
2018-05-15T23:43:55.423Z,31.97
2018-05-15T23:46:23.139Z,35.13
2018-05-15T23:48:50.846Z,32.73
2018-05-15T23:51:18.534Z,32.00
2018-05-15T23:53:46.255Z,35.97
2018-05-15T23:56:13.949Z,35.40
2018-05-15T23:58:42.425Z,30.40
